sensor_id;sensor_type;location;lat;lon;timestamp;P1;durP1;ratioP1;P2;durP2;ratioP2
12445;SDS011;6287;50.984;7.022;2023-05-14T00:01:16;6.83;;;6.13;;
12445;SDS011;6287;50.984;7.022;2023-05-14T00:03:44;6.73;;;5.60;;
12445;SDS011;6287;50.984;7.022;2023-05-14T00:06:10;8.00;;;5.93;;
12445;SDS011;6287;50.984;7.022;2023-05-14T00:08:37;7.73;;;6.20;;
12445;SDS011;6287;50.984;7.022;2023-05-14T00:11:03;6.70;;;6.10;;
12445;SDS011;6287;50.984;7.022;2023-05-14T00:13:28;6.63;;;5.43;;
12445;SDS011;6287;50.984;7.022;2023-05-14T00:15:54;6.43;;;5.30;;
12445;SDS011;6287;50.984;7.022;2023-05-14T00:18:22;7.67;;;6.03;;
12445;SDS011;6287;50.984;7.022;2023-05-14T00:20:50;8.73;;;5.93;;
12445;SDS011;6287;50.984;7.022;2023-05-14T00:23:19;5.93;;;5.40;;
12445;SDS011;6287;50.984;7.022;2023-05-14T00:25:48;9.27;;;5.77;;
12445;SDS011;6287;50.984;7.022;2023-05-14T00:28:16;6.20;;;5.60;;
12445;SDS011;6287;50.984;7.022;2023-05-14T00:30:42;6.67;;;5.70;;
12445;SDS011;6287;50.984;7.022;2023-05-14T00:33:08;6.27;;;5.53;;
12445;SDS011;6287;50.984;7.022;2023-05-14T00:35:33;7.83;;;5.60;;
12445;SDS011;6287;50.984;7.022;2023-05-14T00:38:00;5.63;;;5.07;;
12445;SDS011;6287;50.984;7.022;2023-05-14T00:40:26;6.23;;;5.47;;
12445;SDS011;6287;50.984;7.022;2023-05-14T00:42:55;6.37;;;5.73;;
12445;SDS011;6287;50.984;7.022;2023-05-14T00:45:21;6.27;;;5.67;;
12445;SDS011;6287;50.984;7.022;2023-05-14T00:47:50;6.33;;;5.40;;
12445;SDS011;6287;50.984;7.022;2023-05-14T00:50:18;6.77;;;5.53;;
12445;SDS011;6287;50.984;7.022;2023-05-14T00:52:49;6.10;;;5.50;;
12445;SDS011;6287;50.984;7.022;2023-05-14T00:55:15;7.73;;;5.80;;
12445;SDS011;6287;50.984;7.022;2023-05-14T00:57:43;6.60;;;5.87;;
12445;SDS011;6287;50.984;7.022;2023-05-14T01:00:09;6.30;;;5.70;;
12445;SDS011;6287;50.984;7.022;2023-05-14T01:02:35;6.77;;;5.70;;
12445;SDS011;6287;50.984;7.022;2023-05-14T01:05:02;6.30;;;5.33;;
12445;SDS011;6287;50.984;7.022;2023-05-14T01:07:38;7.20;;;5.57;;
12445;SDS011;6287;50.984;7.022;2023-05-14T01:13:31;6.80;;;5.67;;
12445;SDS011;6287;50.984;7.022;2023-05-14T01:16:02;6.90;;;5.90;;
12445;SDS011;6287;50.984;7.022;2023-05-14T01:18:29;8.43;;;5.97;;
12445;SDS011;6287;50.984;7.022;2023-05-14T01:20:57;7.13;;;5.57;;
12445;SDS011;6287;50.984;7.022;2023-05-14T01:23:25;6.43;;;5.67;;
12445;SDS011;6287;50.984;7.022;2023-05-14T01:25:53;7.90;;;6.03;;
12445;SDS011;6287;50.984;7.022;2023-05-14T01:28:19;7.47;;;6.60;;
12445;SDS011;6287;50.984;7.022;2023-05-14T01:30:53;7.07;;;6.37;;
12445;SDS011;6287;50.984;7.022;2023-05-14T01:33:23;7.37;;;6.17;;
12445;SDS011;6287;50.984;7.022;2023-05-14T01:35:53;6.80;;;5.50;;
12445;SDS011;6287;50.984;7.022;2023-05-14T01:38:21;7.67;;;6.30;;
12445;SDS011;6287;50.984;7.022;2023-05-14T01:40:47;7.10;;;5.80;;
12445;SDS011;6287;50.984;7.022;2023-05-14T01:43:15;6.37;;;5.20;;
12445;SDS011;6287;50.984;7.022;2023-05-14T01:45:41;6.67;;;5.60;;
12445;SDS011;6287;50.984;7.022;2023-05-14T01:48:10;8.00;;;6.23;;
12445;SDS011;6287;50.984;7.022;2023-05-14T01:50:35;6.60;;;5.60;;
12445;SDS011;6287;50.984;7.022;2023-05-14T01:53:03;6.87;;;5.80;;
12445;SDS011;6287;50.984;7.022;2023-05-14T01:55:29;7.43;;;6.27;;
12445;SDS011;6287;50.984;7.022;2023-05-14T01:57:57;6.70;;;6.00;;
12445;SDS011;6287;50.984;7.022;2023-05-14T02:00:23;7.80;;;6.90;;
12445;SDS011;6287;50.984;7.022;2023-05-14T02:02:51;8.83;;;6.13;;
12445;SDS011;6287;50.984;7.022;2023-05-14T02:05:17;8.97;;;7.07;;
12445;SDS011;6287;50.984;7.022;2023-05-14T02:07:43;7.77;;;6.17;;
12445;SDS011;6287;50.984;7.022;2023-05-14T02:10:11;11.70;;;6.60;;
12445;SDS011;6287;50.984;7.022;2023-05-14T02:12:38;7.60;;;5.43;;
12445;SDS011;6287;50.984;7.022;2023-05-14T02:15:07;7.73;;;5.63;;
12445;SDS011;6287;50.984;7.022;2023-05-14T02:17:37;7.67;;;5.87;;
12445;SDS011;6287;50.984;7.022;2023-05-14T02:20:03;6.03;;;5.43;;
12445;SDS011;6287;50.984;7.022;2023-05-14T02:22:29;7.17;;;5.30;;
12445;SDS011;6287;50.984;7.022;2023-05-14T02:24:54;9.23;;;5.47;;
12445;SDS011;6287;50.984;7.022;2023-05-14T02:27:22;6.23;;;5.27;;
12445;SDS011;6287;50.984;7.022;2023-05-14T02:29:50;6.40;;;5.00;;
12445;SDS011;6287;50.984;7.022;2023-05-14T02:32:16;5.67;;;5.07;;
12445;SDS011;6287;50.984;7.022;2023-05-14T02:34:44;6.60;;;4.87;;
12445;SDS011;6287;50.984;7.022;2023-05-14T02:37:12;6.40;;;4.97;;
12445;SDS011;6287;50.984;7.022;2023-05-14T02:39:40;7.67;;;5.07;;
12445;SDS011;6287;50.984;7.022;2023-05-14T02:42:07;6.37;;;5.40;;
12445;SDS011;6287;50.984;7.022;2023-05-14T02:44:35;7.23;;;5.20;;
12445;SDS011;6287;50.984;7.022;2023-05-14T02:47:01;5.47;;;4.97;;
12445;SDS011;6287;50.984;7.022;2023-05-14T02:49:26;5.87;;;4.80;;
12445;SDS011;6287;50.984;7.022;2023-05-14T02:51:52;4.93;;;4.43;;
12445;SDS011;6287;50.984;7.022;2023-05-14T02:54:20;5.23;;;4.73;;
12445;SDS011;6287;50.984;7.022;2023-05-14T02:56:46;6.60;;;5.10;;
12445;SDS011;6287;50.984;7.022;2023-05-14T02:59:14;5.53;;;4.83;;
12445;SDS011;6287;50.984;7.022;2023-05-14T03:01:42;8.03;;;4.90;;
12445;SDS011;6287;50.984;7.022;2023-05-14T03:04:07;5.90;;;5.10;;
12445;SDS011;6287;50.984;7.022;2023-05-14T03:06:36;4.97;;;4.47;;
12445;SDS011;6287;50.984;7.022;2023-05-14T03:09:03;5.43;;;4.93;;
12445;SDS011;6287;50.984;7.022;2023-05-14T03:11:34;6.87;;;5.60;;
12445;SDS011;6287;50.984;7.022;2023-05-14T03:14:01;5.37;;;4.87;;
12445;SDS011;6287;50.984;7.022;2023-05-14T03:16:27;7.50;;;5.13;;
12445;SDS011;6287;50.984;7.022;2023-05-14T03:18:53;5.10;;;4.60;;
12445;SDS011;6287;50.984;7.022;2023-05-14T03:21:18;6.17;;;4.37;;
12445;SDS011;6287;50.984;7.022;2023-05-14T03:23:44;8.23;;;5.13;;
12445;SDS011;6287;50.984;7.022;2023-05-14T03:26:09;6.50;;;4.87;;
12445;SDS011;6287;50.984;7.022;2023-05-14T03:28:37;5.43;;;4.37;;
12445;SDS011;6287;50.984;7.022;2023-05-14T03:31:03;6.37;;;4.27;;
12445;SDS011;6287;50.984;7.022;2023-05-14T03:33:31;8.00;;;4.73;;
12445;SDS011;6287;50.984;7.022;2023-05-14T03:35:57;5.80;;;4.50;;
12445;SDS011;6287;50.984;7.022;2023-05-14T03:38:23;4.60;;;4.20;;
12445;SDS011;6287;50.984;7.022;2023-05-14T03:40:51;5.47;;;4.97;;
12445;SDS011;6287;50.984;7.022;2023-05-14T03:43:16;5.50;;;4.93;;
12445;SDS011;6287;50.984;7.022;2023-05-14T03:45:45;7.33;;;4.73;;
12445;SDS011;6287;50.984;7.022;2023-05-14T03:48:10;5.70;;;4.70;;
12445;SDS011;6287;50.984;7.022;2023-05-14T03:50:36;5.47;;;4.83;;
12445;SDS011;6287;50.984;7.022;2023-05-14T03:53:05;8.27;;;5.33;;
12445;SDS011;6287;50.984;7.022;2023-05-14T03:55:30;6.17;;;4.40;;
12445;SDS011;6287;50.984;7.022;2023-05-14T03:57:58;4.87;;;4.40;;
12445;SDS011;6287;50.984;7.022;2023-05-14T04:00:27;4.60;;;4.20;;
12445;SDS011;6287;50.984;7.022;2023-05-14T04:02:53;4.97;;;4.37;;
12445;SDS011;6287;50.984;7.022;2023-05-14T04:05:18;5.83;;;4.60;;
12445;SDS011;6287;50.984;7.022;2023-05-14T04:07:44;5.93;;;4.83;;
12445;SDS011;6287;50.984;7.022;2023-05-14T04:10:12;5.40;;;4.53;;
12445;SDS011;6287;50.984;7.022;2023-05-14T04:12:43;4.83;;;4.40;;
12445;SDS011;6287;50.984;7.022;2023-05-14T04:15:08;5.53;;;4.77;;
12445;SDS011;6287;50.984;7.022;2023-05-14T04:17:34;4.50;;;4.10;;
12445;SDS011;6287;50.984;7.022;2023-05-14T04:20:00;5.57;;;4.93;;
12445;SDS011;6287;50.984;7.022;2023-05-14T04:22:25;5.17;;;4.67;;
12445;SDS011;6287;50.984;7.022;2023-05-14T04:24:51;5.60;;;4.87;;
12445;SDS011;6287;50.984;7.022;2023-05-14T04:27:19;5.00;;;4.50;;
12445;SDS011;6287;50.984;7.022;2023-05-14T04:29:50;5.53;;;4.83;;
12445;SDS011;6287;50.984;7.022;2023-05-14T04:32:18;6.83;;;4.93;;
12445;SDS011;6287;50.984;7.022;2023-05-14T04:34:46;5.03;;;4.47;;
12445;SDS011;6287;50.984;7.022;2023-05-14T04:37:14;5.53;;;4.97;;
12445;SDS011;6287;50.984;7.022;2023-05-14T04:39:40;6.27;;;5.20;;
12445;SDS011;6287;50.984;7.022;2023-05-14T04:42:07;6.00;;;5.10;;
12445;SDS011;6287;50.984;7.022;2023-05-14T04:44:36;6.37;;;5.37;;
12445;SDS011;6287;50.984;7.022;2023-05-14T04:47:04;5.87;;;4.90;;
12445;SDS011;6287;50.984;7.022;2023-05-14T04:49:30;6.60;;;5.30;;
12445;SDS011;6287;50.984;7.022;2023-05-14T04:51:59;6.10;;;5.07;;
12445;SDS011;6287;50.984;7.022;2023-05-14T04:54:27;5.60;;;5.07;;
12445;SDS011;6287;50.984;7.022;2023-05-14T04:56:53;5.73;;;5.13;;
12445;SDS011;6287;50.984;7.022;2023-05-14T04:59:21;7.47;;;5.53;;
12445;SDS011;6287;50.984;7.022;2023-05-14T05:01:46;5.93;;;5.37;;
12445;SDS011;6287;50.984;7.022;2023-05-14T05:04:12;6.00;;;5.07;;
12445;SDS011;6287;50.984;7.022;2023-05-14T05:06:37;6.03;;;5.47;;
12445;SDS011;6287;50.984;7.022;2023-05-14T05:09:03;6.07;;;5.30;;
12445;SDS011;6287;50.984;7.022;2023-05-14T05:11:32;5.90;;;5.30;;
12445;SDS011;6287;50.984;7.022;2023-05-14T05:14:03;6.03;;;5.43;;
12445;SDS011;6287;50.984;7.022;2023-05-14T05:16:32;5.77;;;5.27;;
12445;SDS011;6287;50.984;7.022;2023-05-14T05:19:03;6.23;;;5.40;;
12445;SDS011;6287;50.984;7.022;2023-05-14T05:21:33;8.33;;;5.50;;
12445;SDS011;6287;50.984;7.022;2023-05-14T05:24:04;8.63;;;6.13;;
12445;SDS011;6287;50.984;7.022;2023-05-14T05:26:32;6.37;;;5.77;;
12445;SDS011;6287;50.984;7.022;2023-05-14T05:29:02;6.30;;;5.67;;
12445;SDS011;6287;50.984;7.022;2023-05-14T05:31:31;5.97;;;5.33;;
12445;SDS011;6287;50.984;7.022;2023-05-14T05:33:59;6.77;;;5.50;;
12445;SDS011;6287;50.984;7.022;2023-05-14T05:36:27;6.83;;;6.13;;
12445;SDS011;6287;50.984;7.022;2023-05-14T05:38:53;6.80;;;6.10;;
12445;SDS011;6287;50.984;7.022;2023-05-14T05:41:19;8.73;;;5.77;;
12445;SDS011;6287;50.984;7.022;2023-05-14T05:43:46;6.40;;;5.73;;
12445;SDS011;6287;50.984;7.022;2023-05-14T05:46:12;6.37;;;5.57;;
12445;SDS011;6287;50.984;7.022;2023-05-14T05:48:40;7.57;;;5.97;;
12445;SDS011;6287;50.984;7.022;2023-05-14T05:51:05;6.70;;;5.13;;
12445;SDS011;6287;50.984;7.022;2023-05-14T05:53:31;6.93;;;6.23;;
12445;SDS011;6287;50.984;7.022;2023-05-14T05:55:57;6.77;;;5.93;;
12445;SDS011;6287;50.984;7.022;2023-05-14T05:58:22;7.43;;;6.10;;
12445;SDS011;6287;50.984;7.022;2023-05-14T06:00:48;7.10;;;6.40;;
12445;SDS011;6287;50.984;7.022;2023-05-14T06:03:17;6.73;;;6.00;;
12445;SDS011;6287;50.984;7.022;2023-05-14T06:05:45;8.30;;;6.00;;
12445;SDS011;6287;50.984;7.022;2023-05-14T06:08:13;7.50;;;6.73;;
12445;SDS011;6287;50.984;7.022;2023-05-14T06:10:39;6.77;;;5.70;;
12445;SDS011;6287;50.984;7.022;2023-05-14T06:13:06;6.80;;;5.73;;
12445;SDS011;6287;50.984;7.022;2023-05-14T06:15:31;6.97;;;6.20;;
12445;SDS011;6287;50.984;7.022;2023-05-14T06:17:59;8.27;;;6.53;;
12445;SDS011;6287;50.984;7.022;2023-05-14T06:20:28;7.40;;;6.53;;
12445;SDS011;6287;50.984;7.022;2023-05-14T06:22:54;6.77;;;5.70;;
12445;SDS011;6287;50.984;7.022;2023-05-14T06:25:20;8.33;;;6.07;;
12445;SDS011;6287;50.984;7.022;2023-05-14T06:27:48;8.10;;;6.20;;
12445;SDS011;6287;50.984;7.022;2023-05-14T06:30:14;9.23;;;6.40;;
12445;SDS011;6287;50.984;7.022;2023-05-14T06:32:40;7.20;;;6.20;;
12445;SDS011;6287;50.984;7.022;2023-05-14T06:35:07;7.30;;;6.53;;
12445;SDS011;6287;50.984;7.022;2023-05-14T06:37:35;8.30;;;7.00;;
12445;SDS011;6287;50.984;7.022;2023-05-14T06:40:04;7.77;;;6.97;;
12445;SDS011;6287;50.984;7.022;2023-05-14T06:42:30;8.70;;;7.20;;
12445;SDS011;6287;50.984;7.022;2023-05-14T06:44:55;8.80;;;7.23;;
12445;SDS011;6287;50.984;7.022;2023-05-14T06:47:21;8.90;;;7.50;;
12445;SDS011;6287;50.984;7.022;2023-05-14T06:49:46;8.93;;;7.40;;
12445;SDS011;6287;50.984;7.022;2023-05-14T06:52:12;8.17;;;7.10;;
12445;SDS011;6287;50.984;7.022;2023-05-14T06:54:38;8.30;;;7.27;;
12445;SDS011;6287;50.984;7.022;2023-05-14T06:57:03;9.27;;;7.27;;
12445;SDS011;6287;50.984;7.022;2023-05-14T06:59:29;8.83;;;7.50;;
12445;SDS011;6287;50.984;7.022;2023-05-14T07:01:57;8.20;;;7.40;;
12445;SDS011;6287;50.984;7.022;2023-05-14T07:04:25;9.80;;;7.37;;
12445;SDS011;6287;50.984;7.022;2023-05-14T07:06:53;10.10;;;8.03;;
12445;SDS011;6287;50.984;7.022;2023-05-14T07:09:21;11.30;;;7.53;;
12445;SDS011;6287;50.984;7.022;2023-05-14T07:11:46;8.73;;;7.47;;
12445;SDS011;6287;50.984;7.022;2023-05-14T07:14:14;7.80;;;7.00;;
12445;SDS011;6287;50.984;7.022;2023-05-14T07:16:40;9.30;;;8.00;;
12445;SDS011;6287;50.984;7.022;2023-05-14T07:19:09;9.33;;;7.73;;
12445;SDS011;6287;50.984;7.022;2023-05-14T07:21:39;9.57;;;6.67;;
12445;SDS011;6287;50.984;7.022;2023-05-14T07:24:07;7.73;;;6.50;;
12445;SDS011;6287;50.984;7.022;2023-05-14T07:26:34;8.93;;;7.53;;
12445;SDS011;6287;50.984;7.022;2023-05-14T07:29:00;8.20;;;6.10;;
12445;SDS011;6287;50.984;7.022;2023-05-14T07:31:33;6.47;;;5.80;;
12445;SDS011;6287;50.984;7.022;2023-05-14T07:34:03;7.63;;;5.33;;
12445;SDS011;6287;50.984;7.022;2023-05-14T07:36:28;6.70;;;6.00;;
12445;SDS011;6287;50.984;7.022;2023-05-14T07:38:56;7.40;;;5.57;;
12445;SDS011;6287;50.984;7.022;2023-05-14T07:41:24;8.15;;;5.60;;
12445;SDS011;6287;50.984;7.022;2023-05-14T07:43:52;7.15;;;5.68;;
12445;SDS011;6287;50.984;7.022;2023-05-14T07:46:18;5.88;;;5.03;;
12445;SDS011;6287;50.984;7.022;2023-05-14T07:48:46;6.25;;;5.65;;
12445;SDS011;6287;50.984;7.022;2023-05-14T07:51:13;5.47;;;4.95;;
12445;SDS011;6287;50.984;7.022;2023-05-14T07:53:39;6.10;;;5.40;;
12445;SDS011;6287;50.984;7.022;2023-05-14T07:56:05;5.77;;;5.27;;
12445;SDS011;6287;50.984;7.022;2023-05-14T07:58:31;5.45;;;4.53;;
12445;SDS011;6287;50.984;7.022;2023-05-14T08:00:59;5.72;;;5.13;;
12445;SDS011;6287;50.984;7.022;2023-05-14T08:03:26;6.28;;;4.68;;
12445;SDS011;6287;50.984;7.022;2023-05-14T08:05:54;5.43;;;4.93;;
12445;SDS011;6287;50.984;7.022;2023-05-14T08:08:24;4.95;;;4.45;;
12445;SDS011;6287;50.984;7.022;2023-05-14T08:10:52;4.82;;;4.43;;
12445;SDS011;6287;50.984;7.022;2023-05-14T08:13:20;5.55;;;4.40;;
12445;SDS011;6287;50.984;7.022;2023-05-14T08:15:49;4.07;;;3.72;;
12445;SDS011;6287;50.984;7.022;2023-05-14T08:18:15;4.53;;;4.13;;
12445;SDS011;6287;50.984;7.022;2023-05-14T08:20:40;4.55;;;4.15;;
12445;SDS011;6287;50.984;7.022;2023-05-14T08:23:06;3.63;;;3.30;;
12445;SDS011;6287;50.984;7.022;2023-05-14T08:25:35;4.05;;;3.42;;
12445;SDS011;6287;50.984;7.022;2023-05-14T08:28:03;3.15;;;2.85;;
12445;SDS011;6287;50.984;7.022;2023-05-14T08:30:32;5.25;;;3.55;;
12445;SDS011;6287;50.984;7.022;2023-05-14T08:32:58;3.60;;;3.17;;
12445;SDS011;6287;50.984;7.022;2023-05-14T08:35:24;3.30;;;2.97;;
12445;SDS011;6287;50.984;7.022;2023-05-14T08:37:49;3.70;;;3.40;;
12445;SDS011;6287;50.984;7.022;2023-05-14T08:40:18;3.65;;;3.28;;
12445;SDS011;6287;50.984;7.022;2023-05-14T08:42:44;3.17;;;2.88;;
12445;SDS011;6287;50.984;7.022;2023-05-14T08:45:17;3.65;;;3.22;;
12445;SDS011;6287;50.984;7.022;2023-05-14T08:47:46;3.25;;;2.60;;
12445;SDS011;6287;50.984;7.022;2023-05-14T08:50:16;3.40;;;3.10;;
12445;SDS011;6287;50.984;7.022;2023-05-14T08:52:42;4.32;;;3.25;;
12445;SDS011;6287;50.984;7.022;2023-05-14T08:55:11;2.83;;;2.63;;
12445;SDS011;6287;50.984;7.022;2023-05-14T08:57:37;2.60;;;2.40;;
12445;SDS011;6287;50.984;7.022;2023-05-14T09:00:05;2.70;;;2.50;;
12445;SDS011;6287;50.984;7.022;2023-05-14T09:02:38;2.90;;;2.70;;
12445;SDS011;6287;50.984;7.022;2023-05-14T09:05:08;2.90;;;2.50;;
12445;SDS011;6287;50.984;7.022;2023-05-14T09:07:34;2.50;;;2.30;;
12445;SDS011;6287;50.984;7.022;2023-05-14T09:10:03;2.67;;;2.47;;
12445;SDS011;6287;50.984;7.022;2023-05-14T09:12:29;2.40;;;2.20;;
12445;SDS011;6287;50.984;7.022;2023-05-14T09:14:55;2.20;;;2.10;;
12445;SDS011;6287;50.984;7.022;2023-05-14T09:17:20;2.10;;;2.00;;
12445;SDS011;6287;50.984;7.022;2023-05-14T09:19:49;1.77;;;1.67;;
12445;SDS011;6287;50.984;7.022;2023-05-14T09:22:17;2.25;;;2.15;;
12445;SDS011;6287;50.984;7.022;2023-05-14T09:25:04;2.47;;;2.28;;
12445;SDS011;6287;50.984;7.022;2023-05-14T09:27:31;2.50;;;2.30;;
12445;SDS011;6287;50.984;7.022;2023-05-14T09:30:07;2.10;;;1.90;;
12445;SDS011;6287;50.984;7.022;2023-05-14T09:32:41;2.40;;;2.20;;
12445;SDS011;6287;50.984;7.022;2023-05-14T09:35:14;2.60;;;2.40;;
12445;SDS011;6287;50.984;7.022;2023-05-14T09:37:43;2.53;;;2.33;;
12445;SDS011;6287;50.984;7.022;2023-05-14T09:40:10;3.22;;;2.95;;
12445;SDS011;6287;50.984;7.022;2023-05-14T09:42:37;3.15;;;2.95;;
12445;SDS011;6287;50.984;7.022;2023-05-14T09:45:03;3.03;;;2.63;;
12445;SDS011;6287;50.984;7.022;2023-05-14T09:47:29;2.80;;;2.60;;
12445;SDS011;6287;50.984;7.022;2023-05-14T09:49:57;4.03;;;3.00;;
12445;SDS011;6287;50.984;7.022;2023-05-14T09:52:25;3.40;;;2.78;;
12445;SDS011;6287;50.984;7.022;2023-05-14T09:54:51;3.53;;;3.17;;
12445;SDS011;6287;50.984;7.022;2023-05-14T09:57:17;4.80;;;3.45;;
12445;SDS011;6287;50.984;7.022;2023-05-14T09:59:46;3.38;;;3.08;;
12445;SDS011;6287;50.984;7.022;2023-05-14T10:02:15;5.10;;;3.50;;
12445;SDS011;6287;50.984;7.022;2023-05-14T10:04:51;3.60;;;3.30;;
12445;SDS011;6287;50.984;7.022;2023-05-14T10:07:21;3.17;;;2.90;;
12445;SDS011;6287;50.984;7.022;2023-05-14T10:09:51;3.20;;;3.00;;
12445;SDS011;6287;50.984;7.022;2023-05-14T10:12:21;4.75;;;3.28;;
12445;SDS011;6287;50.984;7.022;2023-05-14T10:14:51;3.53;;;3.33;;
12445;SDS011;6287;50.984;7.022;2023-05-14T10:17:22;4.45;;;4.05;;
12445;SDS011;6287;50.984;7.022;2023-05-14T10:19:51;4.50;;;4.10;;
12445;SDS011;6287;50.984;7.022;2023-05-14T10:22:23;4.82;;;4.22;;
12445;SDS011;6287;50.984;7.022;2023-05-14T10:24:57;4.20;;;3.80;;
12445;SDS011;6287;50.984;7.022;2023-05-14T10:27:23;4.28;;;3.88;;
12445;SDS011;6287;50.984;7.022;2023-05-14T10:29:50;3.80;;;3.50;;
12445;SDS011;6287;50.984;7.022;2023-05-14T10:32:24;4.20;;;3.80;;
12445;SDS011;6287;50.984;7.022;2023-05-14T10:34:51;4.85;;;3.75;;
12445;SDS011;6287;50.984;7.022;2023-05-14T10:42:20;3.25;;;3.00;;
12445;SDS011;6287;50.984;7.022;2023-05-14T10:44:53;3.40;;;3.10;;
12445;SDS011;6287;50.984;7.022;2023-05-14T10:47:28;3.17;;;2.88;;
12445;SDS011;6287;50.984;7.022;2023-05-14T10:50:00;3.78;;;3.38;;
12445;SDS011;6287;50.984;7.022;2023-05-14T10:52:27;3.88;;;3.58;;
12445;SDS011;6287;50.984;7.022;2023-05-14T10:54:57;4.65;;;3.95;;
12445;SDS011;6287;50.984;7.022;2023-05-14T10:57:24;3.30;;;3.03;;
12445;SDS011;6287;50.984;7.022;2023-05-14T10:59:57;4.03;;;3.72;;
12445;SDS011;6287;50.984;7.022;2023-05-14T11:07:23;4.38;;;3.97;;
12445;SDS011;6287;50.984;7.022;2023-05-14T11:09:58;2.90;;;2.60;;
12445;SDS011;6287;50.984;7.022;2023-05-14T11:12:29;3.45;;;2.70;;
12445;SDS011;6287;50.984;7.022;2023-05-14T11:14:55;2.70;;;2.50;;
12445;SDS011;6287;50.984;7.022;2023-05-14T11:17:23;2.78;;;2.58;;
12445;SDS011;6287;50.984;7.022;2023-05-14T11:19:49;2.67;;;2.50;;
12445;SDS011;6287;50.984;7.022;2023-05-14T11:22:15;3.13;;;2.83;;
12445;SDS011;6287;50.984;7.022;2023-05-14T11:24:43;2.70;;;2.50;;
12445;SDS011;6287;50.984;7.022;2023-05-14T11:27:09;2.70;;;2.50;;
12445;SDS011;6287;50.984;7.022;2023-05-14T11:29:41;2.88;;;2.67;;
12445;SDS011;6287;50.984;7.022;2023-05-14T11:32:10;3.00;;;2.70;;
12445;SDS011;6287;50.984;7.022;2023-05-14T11:34:37;3.05;;;2.70;;
12445;SDS011;6287;50.984;7.022;2023-05-14T11:37:05;2.97;;;2.78;;
12445;SDS011;6287;50.984;7.022;2023-05-14T11:39:32;2.75;;;2.55;;
12445;SDS011;6287;50.984;7.022;2023-05-14T11:42:01;3.08;;;2.78;;
12445;SDS011;6287;50.984;7.022;2023-05-14T11:44:30;3.75;;;2.85;;
12445;SDS011;6287;50.984;7.022;2023-05-14T11:46:56;3.00;;;2.80;;
12445;SDS011;6287;50.984;7.022;2023-05-14T11:49:23;3.30;;;3.00;;
12445;SDS011;6287;50.984;7.022;2023-05-14T11:51:49;3.13;;;2.65;;
12445;SDS011;6287;50.984;7.022;2023-05-14T11:54:20;3.38;;;3.08;;
12445;SDS011;6287;50.984;7.022;2023-05-14T11:56:49;3.17;;;2.92;;
12445;SDS011;6287;50.984;7.022;2023-05-14T11:59:18;3.33;;;3.03;;
12445;SDS011;6287;50.984;7.022;2023-05-14T12:01:45;3.00;;;2.75;;
12445;SDS011;6287;50.984;7.022;2023-05-14T12:04:15;2.97;;;2.78;;
12445;SDS011;6287;50.984;7.022;2023-05-14T12:06:42;3.17;;;2.92;;
12445;SDS011;6287;50.984;7.022;2023-05-14T12:09:11;2.90;;;2.70;;
12445;SDS011;6287;50.984;7.022;2023-05-14T12:11:36;3.20;;;2.90;;
12445;SDS011;6287;50.984;7.022;2023-05-14T12:14:09;3.30;;;3.00;;
12445;SDS011;6287;50.984;7.022;2023-05-14T12:16:45;2.90;;;2.70;;
12445;SDS011;6287;50.984;7.022;2023-05-14T12:19:15;2.85;;;2.53;;
12445;SDS011;6287;50.984;7.022;2023-05-14T12:21:42;3.20;;;2.90;;
12445;SDS011;6287;50.984;7.022;2023-05-14T12:24:16;3.05;;;2.65;;
12445;SDS011;6287;50.984;7.022;2023-05-14T12:26:44;4.15;;;3.25;;
12445;SDS011;6287;50.984;7.022;2023-05-14T12:29:14;3.00;;;2.70;;
12445;SDS011;6287;50.984;7.022;2023-05-14T12:31:47;3.55;;;3.25;;
12445;SDS011;6287;50.984;7.022;2023-05-14T12:34:13;3.92;;;2.88;;
12445;SDS011;6287;50.984;7.022;2023-05-14T12:36:42;3.03;;;2.35;;
12445;SDS011;6287;50.984;7.022;2023-05-14T12:39:09;2.33;;;2.22;;
12445;SDS011;6287;50.984;7.022;2023-05-14T12:41:39;2.88;;;2.28;;
12445;SDS011;6287;50.984;7.022;2023-05-14T12:44:04;2.22;;;1.95;;
12445;SDS011;6287;50.984;7.022;2023-05-14T12:46:31;1.80;;;1.70;;
12445;SDS011;6287;50.984;7.022;2023-05-14T12:48:58;2.05;;;1.92;;
12445;SDS011;6287;50.984;7.022;2023-05-14T12:51:23;1.98;;;1.65;;
12445;SDS011;6287;50.984;7.022;2023-05-14T12:53:49;2.00;;;1.90;;
12445;SDS011;6287;50.984;7.022;2023-05-14T12:56:16;1.67;;;1.58;;
12445;SDS011;6287;50.984;7.022;2023-05-14T12:58:41;1.73;;;1.63;;
12445;SDS011;6287;50.984;7.022;2023-05-14T13:01:07;1.60;;;1.50;;
12445;SDS011;6287;50.984;7.022;2023-05-14T13:03:33;2.10;;;1.70;;
12445;SDS011;6287;50.984;7.022;2023-05-14T13:05:58;1.80;;;1.70;;
12445;SDS011;6287;50.984;7.022;2023-05-14T13:08:29;1.90;;;1.77;;
12445;SDS011;6287;50.984;7.022;2023-05-14T13:10:56;2.22;;;2.00;;
12445;SDS011;6287;50.984;7.022;2023-05-14T13:13:24;2.47;;;2.30;;
12445;SDS011;6287;50.984;7.022;2023-05-14T13:15:50;2.22;;;2.00;;
12445;SDS011;6287;50.984;7.022;2023-05-14T13:18:17;2.30;;;2.15;;
12445;SDS011;6287;50.984;7.022;2023-05-14T13:20:43;1.83;;;1.73;;
12445;SDS011;6287;50.984;7.022;2023-05-14T13:23:13;4.60;;;4.20;;
12445;SDS011;6287;50.984;7.022;2023-05-14T13:25:41;2.40;;;2.30;;
12445;SDS011;6287;50.984;7.022;2023-05-14T13:28:07;2.00;;;1.80;;
12445;SDS011;6287;50.984;7.022;2023-05-14T13:30:35;1.80;;;1.65;;
12445;SDS011;6287;50.984;7.022;2023-05-14T13:33:04;1.50;;;1.40;;
12445;SDS011;6287;50.984;7.022;2023-05-14T13:35:30;1.33;;;1.23;;
12445;SDS011;6287;50.984;7.022;2023-05-14T13:37:58;1.58;;;1.48;;
12445;SDS011;6287;50.984;7.022;2023-05-14T13:40:26;1.98;;;1.88;;
12445;SDS011;6287;50.984;7.022;2023-05-14T13:42:57;1.60;;;1.60;;
12445;SDS011;6287;50.984;7.022;2023-05-14T13:45:27;1.73;;;1.48;;
12445;SDS011;6287;50.984;7.022;2023-05-14T13:47:54;1.85;;;1.75;;
12445;SDS011;6287;50.984;7.022;2023-05-14T13:50:22;2.60;;;2.40;;
12445;SDS011;6287;50.984;7.022;2023-05-14T13:52:50;5.25;;;4.75;;
12445;SDS011;6287;50.984;7.022;2023-05-14T13:55:18;3.75;;;3.45;;
12445;SDS011;6287;50.984;7.022;2023-05-14T13:57:43;1.85;;;1.75;;
12445;SDS011;6287;50.984;7.022;2023-05-14T14:00:09;1.63;;;1.52;;
12445;SDS011;6287;50.984;7.022;2023-05-14T14:02:35;1.40;;;1.30;;
12445;SDS011;6287;50.984;7.022;2023-05-14T14:05:03;2.42;;;1.80;;
12445;SDS011;6287;50.984;7.022;2023-05-14T14:07:29;1.63;;;1.52;;
12445;SDS011;6287;50.984;7.022;2023-05-14T14:09:57;1.88;;;1.77;;
12445;SDS011;6287;50.984;7.022;2023-05-14T14:12:25;2.03;;;1.88;;
12445;SDS011;6287;50.984;7.022;2023-05-14T14:14:56;2.00;;;1.90;;
12445;SDS011;6287;50.984;7.022;2023-05-14T14:17:25;2.20;;;2.00;;
12445;SDS011;6287;50.984;7.022;2023-05-14T14:19:50;1.95;;;1.60;;
12445;SDS011;6287;50.984;7.022;2023-05-14T14:22:16;1.90;;;1.80;;
12445;SDS011;6287;50.984;7.022;2023-05-14T14:24:43;1.98;;;1.80;;
12445;SDS011;6287;50.984;7.022;2023-05-14T14:27:10;1.80;;;1.70;;
12445;SDS011;6287;50.984;7.022;2023-05-14T14:29:35;1.90;;;1.67;;
12445;SDS011;6287;50.984;7.022;2023-05-14T14:32:06;1.90;;;1.80;;
12445;SDS011;6287;50.984;7.022;2023-05-14T14:34:33;2.60;;;1.75;;
12445;SDS011;6287;50.984;7.022;2023-05-14T14:36:59;1.80;;;1.60;;
12445;SDS011;6287;50.984;7.022;2023-05-14T14:39:24;1.92;;;1.70;;
12445;SDS011;6287;50.984;7.022;2023-05-14T14:41:55;1.48;;;1.38;;
12445;SDS011;6287;50.984;7.022;2023-05-14T14:44:23;1.70;;;1.40;;
12445;SDS011;6287;50.984;7.022;2023-05-14T14:46:48;1.60;;;1.50;;
12445;SDS011;6287;50.984;7.022;2023-05-14T14:49:16;2.17;;;1.63;;
12445;SDS011;6287;50.984;7.022;2023-05-14T14:51:44;3.25;;;1.65;;
12445;SDS011;6287;50.984;7.022;2023-05-14T14:54:14;1.83;;;1.73;;
12445;SDS011;6287;50.984;7.022;2023-05-14T14:56:40;1.80;;;1.70;;
12445;SDS011;6287;50.984;7.022;2023-05-14T14:59:09;1.33;;;1.33;;
12445;SDS011;6287;50.984;7.022;2023-05-14T15:01:35;1.70;;;1.60;;
12445;SDS011;6287;50.984;7.022;2023-05-14T15:04:01;1.70;;;1.60;;
12445;SDS011;6287;50.984;7.022;2023-05-14T15:06:28;1.88;;;1.50;;
12445;SDS011;6287;50.984;7.022;2023-05-14T15:08:56;4.93;;;1.40;;
12445;SDS011;6287;50.984;7.022;2023-05-14T15:11:22;1.80;;;1.70;;
12445;SDS011;6287;50.984;7.022;2023-05-14T15:13:50;1.40;;;1.30;;
12445;SDS011;6287;50.984;7.022;2023-05-14T15:16:15;1.50;;;1.40;;